sensor_id;sensor_type;location;lat;lon;timestamp;P1;durP1;ratioP1;P2;durP2;ratioP2
78116;SDS011;69042;59.120;37.904;2023-07-31T00:01:12;130.07;;;41.45;;
78116;SDS011;69042;59.120;37.904;2023-07-31T00:03:38;95.18;;;32.47;;
78116;SDS011;69042;59.120;37.904;2023-07-31T00:06:05;82.82;;;29.88;;
78116;SDS011;69042;59.120;37.904;2023-07-31T00:08:31;89.03;;;28.00;;
78116;SDS011;69042;59.120;37.904;2023-07-31T00:10:57;99.63;;;30.52;;
78116;SDS011;69042;59.120;37.904;2023-07-31T00:13:24;71.75;;;24.90;;
78116;SDS011;69042;59.120;37.904;2023-07-31T00:15:50;66.93;;;27.88;;
78116;SDS011;69042;59.120;37.904;2023-07-31T00:18:16;49.50;;;18.85;;
78116;SDS011;69042;59.120;37.904;2023-07-31T00:20:43;33.85;;;13.77;;
78116;SDS011;69042;59.120;37.904;2023-07-31T00:23:09;33.70;;;13.35;;
78116;SDS011;69042;59.120;37.904;2023-07-31T00:25:35;32.88;;;14.25;;
78116;SDS011;69042;59.120;37.904;2023-07-31T00:28:01;35.25;;;12.30;;
78116;SDS011;69042;59.120;37.904;2023-07-31T00:30:28;30.80;;;12.15;;
78116;SDS011;69042;59.120;37.904;2023-07-31T00:32:55;39.00;;;15.23;;
78116;SDS011;69042;59.120;37.904;2023-07-31T00:35:21;54.60;;;20.23;;
78116;SDS011;69042;59.120;37.904;2023-07-31T00:37:47;101.75;;;30.25;;
78116;SDS011;69042;59.120;37.904;2023-07-31T00:40:13;114.20;;;34.80;;
78116;SDS011;69042;59.120;37.904;2023-07-31T00:42:40;115.28;;;36.28;;
78116;SDS011;69042;59.120;37.904;2023-07-31T00:45:07;169.18;;;61.75;;
78116;SDS011;69042;59.120;37.904;2023-07-31T00:47:34;148.68;;;60.22;;
78116;SDS011;69042;59.120;37.904;2023-07-31T00:50:00;178.60;;;69.43;;
78116;SDS011;69042;59.120;37.904;2023-07-31T00:52:27;169.40;;;68.90;;
78116;SDS011;69042;59.120;37.904;2023-07-31T00:54:55;172.90;;;67.07;;
78116;SDS011;69042;59.120;37.904;2023-07-31T00:57:22;165.40;;;62.28;;
78116;SDS011;69042;59.120;37.904;2023-07-31T00:59:50;169.30;;;63.67;;
78116;SDS011;69042;59.120;37.904;2023-07-31T01:02:17;158.30;;;52.90;;
78116;SDS011;69042;59.120;37.904;2023-07-31T01:04:43;161.43;;;54.38;;
78116;SDS011;69042;59.120;37.904;2023-07-31T01:07:55;160.63;;;50.70;;
78116;SDS011;69042;59.120;37.904;2023-07-31T01:10:11;177.85;;;60.72;;
78116;SDS011;69042;59.120;37.904;2023-07-31T01:12:43;192.05;;;76.55;;
78116;SDS011;69042;59.120;37.904;2023-07-31T01:15:12;177.65;;;61.38;;
78116;SDS011;69042;59.120;37.904;2023-07-31T01:17:41;159.88;;;54.00;;
78116;SDS011;69042;59.120;37.904;2023-07-31T01:20:26;126.72;;;46.53;;
78116;SDS011;69042;59.120;37.904;2023-07-31T01:28:23;141.93;;;41.58;;
78116;SDS011;69042;59.120;37.904;2023-07-31T01:31:09;140.10;;;39.88;;
78116;SDS011;69042;59.120;37.904;2023-07-31T01:33:40;150.90;;;42.83;;
78116;SDS011;69042;59.120;37.904;2023-07-31T01:36:07;112.88;;;36.47;;
78116;SDS011;69042;59.120;37.904;2023-07-31T01:38:34;118.90;;;36.78;;
78116;SDS011;69042;59.120;37.904;2023-07-31T01:41:01;144.23;;;37.78;;
78116;SDS011;69042;59.120;37.904;2023-07-31T01:43:28;120.55;;;35.30;;
78116;SDS011;69042;59.120;37.904;2023-07-31T01:45:54;137.25;;;37.00;;
78116;SDS011;69042;59.120;37.904;2023-07-31T01:48:20;140.75;;;38.88;;
78116;SDS011;69042;59.120;37.904;2023-07-31T01:50:46;133.70;;;36.97;;
78116;SDS011;69042;59.120;37.904;2023-07-31T01:53:13;99.03;;;30.75;;
78116;SDS011;69042;59.120;37.904;2023-07-31T01:55:39;70.78;;;25.65;;
78116;SDS011;69042;59.120;37.904;2023-07-31T01:58:06;71.38;;;27.23;;
78116;SDS011;69042;59.120;37.904;2023-07-31T02:00:33;63.03;;;23.33;;
78116;SDS011;69042;59.120;37.904;2023-07-31T02:02:59;55.38;;;21.27;;
78116;SDS011;69042;59.120;37.904;2023-07-31T02:05:26;51.22;;;19.05;;
78116;SDS011;69042;59.120;37.904;2023-07-31T02:07:52;37.13;;;13.63;;
78116;SDS011;69042;59.120;37.904;2023-07-31T02:10:18;40.13;;;15.52;;
78116;SDS011;69042;59.120;37.904;2023-07-31T02:12:44;31.23;;;13.05;;
78116;SDS011;69042;59.120;37.904;2023-07-31T02:15:11;37.40;;;14.27;;
78116;SDS011;69042;59.120;37.904;2023-07-31T02:17:37;26.45;;;11.98;;
78116;SDS011;69042;59.120;37.904;2023-07-31T02:20:03;43.15;;;16.13;;
78116;SDS011;69042;59.120;37.904;2023-07-31T02:22:31;31.80;;;12.85;;
78116;SDS011;69042;59.120;37.904;2023-07-31T02:24:57;33.10;;;12.15;;
78116;SDS011;69042;59.120;37.904;2023-07-31T02:27:24;33.97;;;13.50;;
78116;SDS011;69042;59.120;37.904;2023-07-31T02:29:53;76.32;;;21.45;;
78116;SDS011;69042;59.120;37.904;2023-07-31T02:32:20;64.20;;;22.83;;
78116;SDS011;69042;59.120;37.904;2023-07-31T02:34:46;83.60;;;25.75;;
78116;SDS011;69042;59.120;37.904;2023-07-31T02:37:13;89.43;;;26.75;;
78116;SDS011;69042;59.120;37.904;2023-07-31T02:39:39;88.60;;;26.83;;
78116;SDS011;69042;59.120;37.904;2023-07-31T02:42:05;103.82;;;30.33;;
78116;SDS011;69042;59.120;37.904;2023-07-31T02:44:32;115.03;;;31.75;;
78116;SDS011;69042;59.120;37.904;2023-07-31T02:46:58;116.28;;;34.55;;
78116;SDS011;69042;59.120;37.904;2023-07-31T02:49:24;109.93;;;33.08;;
78116;SDS011;69042;59.120;37.904;2023-07-31T02:51:51;114.75;;;35.65;;
78116;SDS011;69042;59.120;37.904;2023-07-31T02:54:17;98.97;;;35.83;;
78116;SDS011;69042;59.120;37.904;2023-07-31T02:56:43;114.55;;;35.03;;
78116;SDS011;69042;59.120;37.904;2023-07-31T02:59:10;104.90;;;33.75;;
78116;SDS011;69042;59.120;37.904;2023-07-31T03:01:36;93.32;;;32.03;;
78116;SDS011;69042;59.120;37.904;2023-07-31T03:04:02;89.78;;;28.88;;
78116;SDS011;69042;59.120;37.904;2023-07-31T03:06:28;79.13;;;29.80;;
78116;SDS011;69042;59.120;37.904;2023-07-31T03:08:55;57.22;;;25.65;;
78116;SDS011;69042;59.120;37.904;2023-07-31T03:11:22;58.28;;;26.05;;
78116;SDS011;69042;59.120;37.904;2023-07-31T03:13:48;29.98;;;12.98;;
78116;SDS011;69042;59.120;37.904;2023-07-31T03:16:14;74.38;;;29.55;;
78116;SDS011;69042;59.120;37.904;2023-07-31T03:18:41;63.03;;;27.38;;
78116;SDS011;69042;59.120;37.904;2023-07-31T03:21:07;82.72;;;30.02;;
78116;SDS011;69042;59.120;37.904;2023-07-31T03:23:33;70.45;;;26.92;;
78116;SDS011;69042;59.120;37.904;2023-07-31T03:26:01;69.40;;;25.77;;
78116;SDS011;69042;59.120;37.904;2023-07-31T03:28:29;68.00;;;25.35;;
78116;SDS011;69042;59.120;37.904;2023-07-31T03:30:55;67.07;;;28.90;;
78116;SDS011;69042;59.120;37.904;2023-07-31T03:33:22;71.43;;;29.50;;
78116;SDS011;69042;59.120;37.904;2023-07-31T03:35:49;56.53;;;26.55;;
78116;SDS011;69042;59.120;37.904;2023-07-31T03:38:15;63.85;;;26.38;;
78116;SDS011;69042;59.120;37.904;2023-07-31T03:40:42;72.57;;;26.85;;
78116;SDS011;69042;59.120;37.904;2023-07-31T03:43:08;70.72;;;26.13;;
78116;SDS011;69042;59.120;37.904;2023-07-31T03:45:34;65.68;;;26.00;;
78116;SDS011;69042;59.120;37.904;2023-07-31T03:48:01;69.63;;;24.60;;
78116;SDS011;69042;59.120;37.904;2023-07-31T03:50:27;68.95;;;22.92;;
78116;SDS011;69042;59.120;37.904;2023-07-31T03:52:54;64.68;;;23.70;;
78116;SDS011;69042;59.120;37.904;2023-07-31T03:55:20;77.80;;;24.67;;
78116;SDS011;69042;59.120;37.904;2023-07-31T03:57:47;65.65;;;26.30;;
78116;SDS011;69042;59.120;37.904;2023-07-31T04:00:14;86.40;;;30.40;;
78116;SDS011;69042;59.120;37.904;2023-07-31T04:02:41;91.38;;;30.83;;
78116;SDS011;69042;59.120;37.904;2023-07-31T04:05:07;92.90;;;33.25;;
78116;SDS011;69042;59.120;37.904;2023-07-31T04:07:34;106.70;;;35.10;;
78116;SDS011;69042;59.120;37.904;2023-07-31T04:10:00;99.40;;;34.05;;
78116;SDS011;69042;59.120;37.904;2023-07-31T04:12:26;80.20;;;27.55;;
78116;SDS011;69042;59.120;37.904;2023-07-31T04:14:52;65.80;;;24.00;;
78116;SDS011;69042;59.120;37.904;2023-07-31T04:17:19;63.88;;;25.48;;
78116;SDS011;69042;59.120;37.904;2023-07-31T04:19:45;70.88;;;26.15;;
78116;SDS011;69042;59.120;37.904;2023-07-31T04:22:11;65.68;;;23.95;;
78116;SDS011;69042;59.120;37.904;2023-07-31T04:24:38;77.38;;;26.45;;
78116;SDS011;69042;59.120;37.904;2023-07-31T04:27:04;81.00;;;25.80;;
78116;SDS011;69042;59.120;37.904;2023-07-31T04:29:31;79.85;;;26.92;;
78116;SDS011;69042;59.120;37.904;2023-07-31T04:31:57;99.20;;;30.23;;
78116;SDS011;69042;59.120;37.904;2023-07-31T04:34:23;104.05;;;31.40;;
78116;SDS011;69042;59.120;37.904;2023-07-31T04:36:50;64.07;;;23.65;;
78116;SDS011;69042;59.120;37.904;2023-07-31T04:39:16;51.60;;;19.90;;
78116;SDS011;69042;59.120;37.904;2023-07-31T04:41:42;62.00;;;21.20;;
78116;SDS011;69042;59.120;37.904;2023-07-31T04:44:08;83.45;;;26.58;;
78116;SDS011;69042;59.120;37.904;2023-07-31T04:46:37;71.50;;;26.15;;
78116;SDS011;69042;59.120;37.904;2023-07-31T04:49:03;79.57;;;27.05;;
78116;SDS011;69042;59.120;37.904;2023-07-31T04:51:29;65.93;;;24.15;;
78116;SDS011;69042;59.120;37.904;2023-07-31T04:53:56;60.30;;;24.13;;
78116;SDS011;69042;59.120;37.904;2023-07-31T04:56:22;58.28;;;21.27;;
78116;SDS011;69042;59.120;37.904;2023-07-31T04:58:49;54.08;;;21.83;;
78116;SDS011;69042;59.120;37.904;2023-07-31T05:01:15;72.53;;;26.92;;
78116;SDS011;69042;59.120;37.904;2023-07-31T05:03:41;69.45;;;22.83;;
78116;SDS011;69042;59.120;37.904;2023-07-31T05:06:08;75.13;;;28.08;;
78116;SDS011;69042;59.120;37.904;2023-07-31T05:08:34;63.50;;;23.52;;
78116;SDS011;69042;59.120;37.904;2023-07-31T05:11:00;64.90;;;26.17;;
78116;SDS011;69042;59.120;37.904;2023-07-31T05:13:27;74.05;;;24.48;;
78116;SDS011;69042;59.120;37.904;2023-07-31T05:15:53;72.50;;;26.00;;
78116;SDS011;69042;59.120;37.904;2023-07-31T05:18:19;84.30;;;26.02;;
78116;SDS011;69042;59.120;37.904;2023-07-31T05:20:46;64.43;;;25.98;;
78116;SDS011;69042;59.120;37.904;2023-07-31T05:23:12;53.65;;;22.58;;
78116;SDS011;69042;59.120;37.904;2023-07-31T05:25:38;47.50;;;20.25;;
78116;SDS011;69042;59.120;37.904;2023-07-31T05:28:05;63.42;;;25.92;;
78116;SDS011;69042;59.120;37.904;2023-07-31T05:30:31;136.82;;;42.50;;
78116;SDS011;69042;59.120;37.904;2023-07-31T05:32:57;133.23;;;41.22;;
78116;SDS011;69042;59.120;37.904;2023-07-31T05:35:24;108.82;;;34.80;;
78116;SDS011;69042;59.120;37.904;2023-07-31T05:37:50;88.95;;;30.13;;
78116;SDS011;69042;59.120;37.904;2023-07-31T05:40:16;65.38;;;24.30;;
78116;SDS011;69042;59.120;37.904;2023-07-31T05:42:43;26.13;;;9.70;;
78116;SDS011;69042;59.120;37.904;2023-07-31T05:45:09;65.40;;;24.60;;
78116;SDS011;69042;59.120;37.904;2023-07-31T05:47:36;53.25;;;23.38;;
78116;SDS011;69042;59.120;37.904;2023-07-31T05:50:02;58.70;;;21.30;;
78116;SDS011;69042;59.120;37.904;2023-07-31T05:52:28;45.67;;;19.30;;
78116;SDS011;69042;59.120;37.904;2023-07-31T05:54:54;67.68;;;26.58;;
78116;SDS011;69042;59.120;37.904;2023-07-31T05:57:21;60.40;;;27.27;;
78116;SDS011;69042;59.120;37.904;2023-07-31T05:59:47;56.90;;;28.35;;
78116;SDS011;69042;59.120;37.904;2023-07-31T06:02:13;61.28;;;30.42;;
78116;SDS011;69042;59.120;37.904;2023-07-31T06:04:40;53.00;;;25.25;;
78116;SDS011;69042;59.120;37.904;2023-07-31T06:07:06;37.30;;;19.67;;
78116;SDS011;69042;59.120;37.904;2023-07-31T06:09:32;40.58;;;19.02;;
78116;SDS011;69042;59.120;37.904;2023-07-31T06:11:59;40.60;;;18.00;;
78116;SDS011;69042;59.120;37.904;2023-07-31T06:14:25;20.67;;;9.70;;
78116;SDS011;69042;59.120;37.904;2023-07-31T06:16:52;11.20;;;5.28;;
78116;SDS011;69042;59.120;37.904;2023-07-31T06:19:18;13.52;;;6.82;;
78116;SDS011;69042;59.120;37.904;2023-07-31T06:21:45;25.55;;;11.40;;
78116;SDS011;69042;59.120;37.904;2023-07-31T06:24:12;11.02;;;4.47;;
78116;SDS011;69042;59.120;37.904;2023-07-31T06:26:39;15.15;;;5.57;;
78116;SDS011;69042;59.120;37.904;2023-07-31T06:29:05;17.27;;;6.35;;
78116;SDS011;69042;59.120;37.904;2023-07-31T06:31:32;10.05;;;4.57;;
78116;SDS011;69042;59.120;37.904;2023-07-31T06:33:58;9.10;;;3.30;;
78116;SDS011;69042;59.120;37.904;2023-07-31T06:36:24;11.63;;;4.82;;
78116;SDS011;69042;59.120;37.904;2023-07-31T06:38:51;72.95;;;20.55;;
78116;SDS011;69042;59.120;37.904;2023-07-31T06:41:17;68.60;;;21.33;;
78116;SDS011;69042;59.120;37.904;2023-07-31T06:43:43;52.15;;;17.85;;
78116;SDS011;69042;59.120;37.904;2023-07-31T06:46:09;36.13;;;14.45;;
78116;SDS011;69042;59.120;37.904;2023-07-31T06:48:36;32.47;;;12.10;;
78116;SDS011;69042;59.120;37.904;2023-07-31T06:51:03;26.17;;;9.65;;
78116;SDS011;69042;59.120;37.904;2023-07-31T06:53:29;24.42;;;10.65;;
78116;SDS011;69042;59.120;37.904;2023-07-31T06:55:56;25.80;;;11.52;;
78116;SDS011;69042;59.120;37.904;2023-07-31T06:58:22;30.20;;;13.68;;
78116;SDS011;69042;59.120;37.904;2023-07-31T07:00:48;46.20;;;19.52;;
78116;SDS011;69042;59.120;37.904;2023-07-31T07:03:18;38.42;;;19.60;;
78116;SDS011;69042;59.120;37.904;2023-07-31T07:05:44;46.47;;;19.42;;
78116;SDS011;69042;59.120;37.904;2023-07-31T07:08:11;41.22;;;18.15;;
78116;SDS011;69042;59.120;37.904;2023-07-31T07:10:37;45.55;;;18.45;;
78116;SDS011;69042;59.120;37.904;2023-07-31T07:13:03;37.40;;;18.75;;
78116;SDS011;69042;59.120;37.904;2023-07-31T07:15:30;26.20;;;12.85;;
78116;SDS011;69042;59.120;37.904;2023-07-31T07:17:56;37.55;;;21.60;;
78116;SDS011;69042;59.120;37.904;2023-07-31T07:20:23;37.97;;;21.45;;
78116;SDS011;69042;59.120;37.904;2023-07-31T07:22:49;31.95;;;14.85;;
78116;SDS011;69042;59.120;37.904;2023-07-31T07:25:15;38.65;;;16.92;;
78116;SDS011;69042;59.120;37.904;2023-07-31T07:27:42;32.38;;;15.55;;
78116;SDS011;69042;59.120;37.904;2023-07-31T07:30:08;26.63;;;13.32;;
78116;SDS011;69042;59.120;37.904;2023-07-31T07:32:35;17.75;;;9.15;;
78116;SDS011;69042;59.120;37.904;2023-07-31T07:35:01;18.33;;;8.65;;
78116;SDS011;69042;59.120;37.904;2023-07-31T07:37:27;15.95;;;8.30;;
78116;SDS011;69042;59.120;37.904;2023-07-31T07:39:54;26.05;;;12.50;;
78116;SDS011;69042;59.120;37.904;2023-07-31T07:42:20;25.83;;;12.00;;
78116;SDS011;69042;59.120;37.904;2023-07-31T07:44:46;27.13;;;13.40;;
78116;SDS011;69042;59.120;37.904;2023-07-31T07:47:13;26.05;;;13.02;;
78116;SDS011;69042;59.120;37.904;2023-07-31T07:49:39;24.35;;;12.23;;
78116;SDS011;69042;59.120;37.904;2023-07-31T07:52:05;16.25;;;8.35;;
78116;SDS011;69042;59.120;37.904;2023-07-31T07:54:32;18.70;;;9.70;;
78116;SDS011;69042;59.120;37.904;2023-07-31T07:56:58;17.38;;;8.13;;
78116;SDS011;69042;59.120;37.904;2023-07-31T07:59:25;12.93;;;6.32;;
78116;SDS011;69042;59.120;37.904;2023-07-31T08:01:51;18.35;;;8.75;;
78116;SDS011;69042;59.120;37.904;2023-07-31T08:04:17;26.75;;;13.57;;
78116;SDS011;69042;59.120;37.904;2023-07-31T08:06:44;15.65;;;8.43;;
78116;SDS011;69042;59.120;37.904;2023-07-31T08:09:10;20.92;;;9.48;;
78116;SDS011;69042;59.120;37.904;2023-07-31T08:11:37;24.25;;;11.77;;
78116;SDS011;69042;59.120;37.904;2023-07-31T08:14:03;15.02;;;7.45;;
78116;SDS011;69042;59.120;37.904;2023-07-31T08:16:29;9.38;;;4.93;;
78116;SDS011;69042;59.120;37.904;2023-07-31T08:18:56;43.45;;;19.98;;
78116;SDS011;69042;59.120;37.904;2023-07-31T08:21:22;27.90;;;12.05;;
78116;SDS011;69042;59.120;37.904;2023-07-31T08:23:48;17.75;;;9.13;;
78116;SDS011;69042;59.120;37.904;2023-07-31T08:26:15;13.73;;;6.70;;
78116;SDS011;69042;59.120;37.904;2023-07-31T08:31:09;36.58;;;17.45;;
78116;SDS011;69042;59.120;37.904;2023-07-31T08:33:36;26.02;;;11.55;;
78116;SDS011;69042;59.120;37.904;2023-07-31T08:36:03;16.42;;;7.72;;
78116;SDS011;69042;59.120;37.904;2023-07-31T08:38:30;18.02;;;9.30;;
78116;SDS011;69042;59.120;37.904;2023-07-31T08:40:57;16.02;;;8.25;;
78116;SDS011;69042;59.120;37.904;2023-07-31T08:43:25;13.55;;;7.50;;
78116;SDS011;69042;59.120;37.904;2023-07-31T08:45:52;11.95;;;6.90;;
78116;SDS011;69042;59.120;37.904;2023-07-31T08:48:20;9.90;;;4.95;;
78116;SDS011;69042;59.120;37.904;2023-07-31T08:50:51;7.68;;;3.70;;
78116;SDS011;69042;59.120;37.904;2023-07-31T08:53:19;9.45;;;4.65;;
78116;SDS011;69042;59.120;37.904;2023-07-31T08:55:46;9.25;;;3.90;;
78116;SDS011;69042;59.120;37.904;2023-07-31T08:58:13;6.20;;;3.35;;
78116;SDS011;69042;59.120;37.904;2023-07-31T09:00:41;7.05;;;3.50;;
78116;SDS011;69042;59.120;37.904;2023-07-31T09:03:13;12.25;;;5.32;;
78116;SDS011;69042;59.120;37.904;2023-07-31T09:05:42;6.63;;;3.10;;
78116;SDS011;69042;59.120;37.904;2023-07-31T09:08:10;12.07;;;4.75;;
78116;SDS011;69042;59.120;37.904;2023-07-31T09:13:09;35.42;;;14.55;;
78116;SDS011;69042;59.120;37.904;2023-07-31T09:15:36;21.25;;;8.45;;
78116;SDS011;69042;59.120;37.904;2023-07-31T09:18:04;19.25;;;7.95;;
78116;SDS011;69042;59.120;37.904;2023-07-31T09:20:32;18.85;;;8.38;;
78116;SDS011;69042;59.120;37.904;2023-07-31T09:23:09;17.73;;;8.07;;
78116;SDS011;69042;59.120;37.904;2023-07-31T09:25:40;13.43;;;5.97;;
78116;SDS011;69042;59.120;37.904;2023-07-31T09:28:10;7.68;;;3.20;;
78116;SDS011;69042;59.120;37.904;2023-07-31T09:30:58;5.82;;;3.08;;
78116;SDS011;69042;59.120;37.904;2023-07-31T09:33:24;8.52;;;3.20;;
78116;SDS011;69042;59.120;37.904;2023-07-31T09:35:50;8.32;;;3.42;;
78116;SDS011;69042;59.120;37.904;2023-07-31T09:38:16;9.27;;;4.53;;
78116;SDS011;69042;59.120;37.904;2023-07-31T09:40:52;8.65;;;4.10;;
78116;SDS011;69042;59.120;37.904;2023-07-31T09:43:19;9.35;;;4.90;;
78116;SDS011;69042;59.120;37.904;2023-07-31T09:45:47;7.93;;;4.22;;
78116;SDS011;69042;59.120;37.904;2023-07-31T09:48:17;7.05;;;3.15;;
78116;SDS011;69042;59.120;37.904;2023-07-31T09:50:45;7.55;;;3.15;;
78116;SDS011;69042;59.120;37.904;2023-07-31T09:53:13;11.40;;;5.32;;
78116;SDS011;69042;59.120;37.904;2023-07-31T09:55:40;8.90;;;4.50;;
78116;SDS011;69042;59.120;37.904;2023-07-31T09:58:07;10.70;;;4.35;;
78116;SDS011;69042;59.120;37.904;2023-07-31T10:00:35;8.30;;;3.90;;
78116;SDS011;69042;59.120;37.904;2023-07-31T10:03:07;7.13;;;3.47;;
78116;SDS011;69042;59.120;37.904;2023-07-31T10:05:36;10.63;;;4.60;;
78116;SDS011;69042;59.120;37.904;2023-07-31T10:08:09;7.53;;;3.38;;
78116;SDS011;69042;59.120;37.904;2023-07-31T10:10:38;6.53;;;2.92;;
78116;SDS011;69042;59.120;37.904;2023-07-31T10:13:08;5.30;;;2.80;;
78116;SDS011;69042;59.120;37.904;2023-07-31T10:15:35;5.32;;;2.78;;
78116;SDS011;69042;59.120;37.904;2023-07-31T10:18:02;5.70;;;2.80;;
78116;SDS011;69042;59.120;37.904;2023-07-31T10:20:32;5.50;;;3.00;;
78116;SDS011;69042;59.120;37.904;2023-07-31T10:22:59;6.50;;;3.53;;
78116;SDS011;69042;59.120;37.904;2023-07-31T10:25:26;6.63;;;3.50;;
78116;SDS011;69042;59.120;37.904;2023-07-31T10:27:53;8.57;;;4.20;;
78116;SDS011;69042;59.120;37.904;2023-07-31T10:30:20;10.55;;;4.65;;
78116;SDS011;69042;59.120;37.904;2023-07-31T10:32:50;7.35;;;3.63;;
78116;SDS011;69042;59.120;37.904;2023-07-31T10:35:17;6.57;;;3.10;;
78116;SDS011;69042;59.120;37.904;2023-07-31T10:37:44;6.13;;;3.08;;
78116;SDS011;69042;59.120;37.904;2023-07-31T10:45:27;8.00;;;3.33;;
78116;SDS011;69042;59.120;37.904;2023-07-31T10:48:04;6.70;;;2.90;;
78116;SDS011;69042;59.120;37.904;2023-07-31T10:50:32;5.40;;;2.67;;
78116;SDS011;69042;59.120;37.904;2023-07-31T10:53:03;5.63;;;3.30;;
78116;SDS011;69042;59.120;37.904;2023-07-31T10:58:18;9.85;;;3.60;;
78116;SDS011;69042;59.120;37.904;2023-07-31T11:00:47;12.95;;;7.32;;
78116;SDS011;69042;59.120;37.904;2023-07-31T11:03:17;14.75;;;7.18;;
78116;SDS011;69042;59.120;37.904;2023-07-31T11:05:45;11.57;;;5.05;;
78116;SDS011;69042;59.120;37.904;2023-07-31T11:08:25;8.30;;;4.05;;
78116;SDS011;69042;59.120;37.904;2023-07-31T11:13:33;7.65;;;3.65;;
78116;SDS011;69042;59.120;37.904;2023-07-31T11:16:07;9.45;;;4.15;;
78116;SDS011;69042;59.120;37.904;2023-07-31T11:18:33;11.98;;;6.38;;
78116;SDS011;69042;59.120;37.904;2023-07-31T11:21:00;8.82;;;4.85;;
78116;SDS011;69042;59.120;37.904;2023-07-31T11:23:26;10.48;;;4.03;;
78116;SDS011;69042;59.120;37.904;2023-07-31T11:25:53;12.20;;;4.60;;
78116;SDS011;69042;59.120;37.904;2023-07-31T11:28:25;10.73;;;3.83;;
78116;SDS011;69042;59.120;37.904;2023-07-31T11:30:52;10.70;;;4.22;;
78116;SDS011;69042;59.120;37.904;2023-07-31T11:33:18;8.90;;;3.80;;
78116;SDS011;69042;59.120;37.904;2023-07-31T11:35:48;13.43;;;4.57;;
78116;SDS011;69042;59.120;37.904;2023-07-31T11:38:24;10.52;;;4.22;;
78116;SDS011;69042;59.120;37.904;2023-07-31T11:40:51;10.93;;;3.83;;
78116;SDS011;69042;59.120;37.904;2023-07-31T11:43:19;13.35;;;4.10;;
78116;SDS011;69042;59.120;37.904;2023-07-31T11:45:47;14.77;;;4.30;;
78116;SDS011;69042;59.120;37.904;2023-07-31T11:48:18;13.85;;;4.70;;
78116;SDS011;69042;59.120;37.904;2023-07-31T11:50:45;10.23;;;3.97;;
78116;SDS011;69042;59.120;37.904;2023-07-31T11:53:12;9.02;;;4.05;;
78116;SDS011;69042;59.120;37.904;2023-07-31T11:55:39;5.80;;;3.55;;
78116;SDS011;69042;59.120;37.904;2023-07-31T11:58:06;7.15;;;3.55;;
78116;SDS011;69042;59.120;37.904;2023-07-31T12:00:32;8.13;;;3.80;;
78116;SDS011;69042;59.120;37.904;2023-07-31T12:02:59;7.55;;;4.00;;
78116;SDS011;69042;59.120;37.904;2023-07-31T12:05:25;9.95;;;4.22;;
78116;SDS011;69042;59.120;37.904;2023-07-31T12:07:53;7.68;;;3.95;;
78116;SDS011;69042;59.120;37.904;2023-07-31T12:10:27;7.43;;;4.70;;
78116;SDS011;69042;59.120;37.904;2023-07-31T12:12:59;9.15;;;4.30;;
78116;SDS011;69042;59.120;37.904;2023-07-31T12:15:38;7.30;;;3.83;;
78116;SDS011;69042;59.120;37.904;2023-07-31T12:20:39;5.60;;;3.38;;
78116;SDS011;69042;59.120;37.904;2023-07-31T12:23:17;8.73;;;3.95;;
78116;SDS011;69042;59.120;37.904;2023-07-31T12:26:33;7.88;;;3.60;;
78116;SDS011;69042;59.120;37.904;2023-07-31T12:28:46;7.07;;;3.72;;
78116;SDS011;69042;59.120;37.904;2023-07-31T12:31:18;8.38;;;3.90;;
78116;SDS011;69042;59.120;37.904;2023-07-31T12:33:47;13.70;;;4.50;;
78116;SDS011;69042;59.120;37.904;2023-07-31T12:36:16;14.88;;;6.00;;
78116;SDS011;69042;59.120;37.904;2023-07-31T12:38:44;6.57;;;3.55;;
78116;SDS011;69042;59.120;37.904;2023-07-31T12:41:11;9.32;;;3.80;;
78116;SDS011;69042;59.120;37.904;2023-07-31T12:43:38;7.43;;;3.97;;
78116;SDS011;69042;59.120;37.904;2023-07-31T12:46:06;8.18;;;4.00;;
78116;SDS011;69042;59.120;37.904;2023-07-31T12:48:36;7.28;;;3.90;;
78116;SDS011;69042;59.120;37.904;2023-07-31T12:51:04;7.65;;;3.70;;
78116;SDS011;69042;59.120;37.904;2023-07-31T12:53:31;10.88;;;3.50;;
78116;SDS011;69042;59.120;37.904;2023-07-31T12:55:57;11.07;;;3.70;;
78116;SDS011;69042;59.120;37.904;2023-07-31T12:58:23;6.60;;;3.38;;
78116;SDS011;69042;59.120;37.904;2023-07-31T13:00:50;8.00;;;3.67;;
78116;SDS011;69042;59.120;37.904;2023-07-31T13:03:16;8.88;;;3.30;;
78116;SDS011;69042;59.120;37.904;2023-07-31T13:05:42;9.45;;;3.83;;
78116;SDS011;69042;59.120;37.904;2023-07-31T13:08:09;7.97;;;3.33;;
78116;SDS011;69042;59.120;37.904;2023-07-31T13:10:35;7.20;;;3.33;;
78116;SDS011;69042;59.120;37.904;2023-07-31T13:13:01;9.13;;;3.85;;
78116;SDS011;69042;59.120;37.904;2023-07-31T13:15:28;7.95;;;3.72;;
78116;SDS011;69042;59.120;37.904;2023-07-31T13:17:55;8.10;;;3.90;;
78116;SDS011;69042;59.120;37.904;2023-07-31T13:20:21;8.25;;;3.58;;
78116;SDS011;69042;59.120;37.904;2023-07-31T13:22:47;8.40;;;3.90;;
78116;SDS011;69042;59.120;37.904;2023-07-31T13:25:13;10.13;;;4.85;;
78116;SDS011;69042;59.120;37.904;2023-07-31T13:27:40;10.35;;;3.88;;
78116;SDS011;69042;59.120;37.904;2023-07-31T13:30:06;9.32;;;3.53;;
78116;SDS011;69042;59.120;37.904;2023-07-31T13:32:33;7.07;;;3.42;;
78116;SDS011;69042;59.120;37.904;2023-07-31T13:35:07;12.10;;;8.07;;
78116;SDS011;69042;59.120;37.904;2023-07-31T13:37:34;6.65;;;3.30;;
78116;SDS011;69042;59.120;37.904;2023-07-31T13:40:00;9.73;;;3.70;;
78116;SDS011;69042;59.120;37.904;2023-07-31T13:42:27;9.75;;;3.50;;
78116;SDS011;69042;59.120;37.904;2023-07-31T13:44:54;6.75;;;3.22;;
78116;SDS011;69042;59.120;37.904;2023-07-31T13:47:22;6.68;;;3.03;;
78116;SDS011;69042;59.120;37.904;2023-07-31T13:49:48;6.22;;;2.90;;
78116;SDS011;69042;59.120;37.904;2023-07-31T13:52:15;6.05;;;3.03;;
78116;SDS011;69042;59.120;37.904;2023-07-31T13:54:41;5.72;;;2.67;;
78116;SDS011;69042;59.120;37.904;2023-07-31T13:57:08;5.00;;;2.53;;
78116;SDS011;69042;59.120;37.904;2023-07-31T13:59:35;8.48;;;2.90;;
78116;SDS011;69042;59.120;37.904;2023-07-31T14:02:02;5.95;;;3.30;;
78116;SDS011;69042;59.120;37.904;2023-07-31T14:04:29;7.95;;;3.72;;
78116;SDS011;69042;59.120;37.904;2023-07-31T14:06:55;7.50;;;3.55;;
78116;SDS011;69042;59.120;37.904;2023-07-31T14:11:49;9.35;;;3.90;;
78116;SDS011;69042;59.120;37.904;2023-07-31T14:14:15;6.72;;;3.60;;
78116;SDS011;69042;59.120;37.904;2023-07-31T14:16:43;9.73;;;4.45;;
78116;SDS011;69042;59.120;37.904;2023-07-31T14:19:10;7.43;;;4.10;;
78116;SDS011;69042;59.120;37.904;2023-07-31T14:21:36;8.32;;;4.15;;
78116;SDS011;69042;59.120;37.904;2023-07-31T14:24:02;7.10;;;3.92;;
78116;SDS011;69042;59.120;37.904;2023-07-31T14:26:29;11.05;;;3.97;;
78116;SDS011;69042;59.120;37.904;2023-07-31T14:28:55;8.13;;;3.92;;
78116;SDS011;69042;59.120;37.904;2023-07-31T14:31:21;10.73;;;4.50;;
78116;SDS011;69042;59.120;37.904;2023-07-31T14:33:48;8.90;;;4.68;;
78116;SDS011;69042;59.120;37.904;2023-07-31T14:36:14;11.98;;;4.45;;
78116;SDS011;69042;59.120;37.904;2023-07-31T14:38:40;9.70;;;4.40;;
78116;SDS011;69042;59.120;37.904;2023-07-31T14:41:07;9.73;;;4.32;;
78116;SDS011;69042;59.120;37.904;2023-07-31T14:43:33;8.65;;;3.72;;